Ciempozuelos, Spain
Current Conditions -  °F | °C
As of 9:00 PM on Thursday 23 Oct 2014 (Local Time) from LEGT Reporting Station
Clear Clear  
Wind Chill: 19°   Ceiling: Unl
Heat Index: 19°   Visibility: 6mi
Dew Point:   Wind: 5mph
Humidity: 46%   Direction: 340°NNW
Pressure: 30.18"   Gusts: NA
Location:  40.16°N, 3.62°W
Report Text: LEGT 231900Z 34004KT CAVOK 19/07 Q1022
Loading
Personal Weather Stations






























Interactive Weather Map
Tropical Storm Tracking
New forecast layout! Learn more

10-Day Weather Forecast

Advertisements
Track Severe Weather on mobile